sensor_id;sensor_type;location;lat;lon;timestamp;pressure;altitude;pressure_sealevel;temperature;humidity
32747;BME280;19118;50.860;13.662;2023-03-01T00:00:37;98087.63;;;-8.21;100.00
32747;BME280;19118;50.860;13.662;2023-03-01T00:05:44;98095.75;;;-8.33;100.00
32747;BME280;19118;50.860;13.662;2023-03-01T00:10:44;98094.94;;;-8.34;100.00
32747;BME280;19118;50.860;13.662;2023-03-01T00:15:44;98100.91;;;-8.33;100.00
32747;BME280;19118;50.860;13.662;2023-03-01T00:20:52;98106.47;;;-8.45;100.00
32747;BME280;19118;50.860;13.662;2023-03-01T00:25:53;98101.03;;;-8.36;100.00
32747;BME280;19118;50.860;13.662;2023-03-01T00:30:53;98097.22;;;-8.26;100.00
32747;BME280;19118;50.860;13.662;2023-03-01T00:35:54;98097.22;;;-8.26;100.00
32747;BME280;19118;50.860;13.662;2023-03-01T00:40:54;98089.81;;;-8.34;100.00
32747;BME280;19118;50.860;13.662;2023-03-01T00:45:55;98080.91;;;-8.47;100.00
32747;BME280;19118;50.860;13.662;2023-03-01T00:50:56;98081.28;;;-8.58;100.00
32747;BME280;19118;50.860;13.662;2023-03-01T00:55:57;98081.53;;;-8.65;100.00
32747;BME280;19118;50.860;13.662;2023-03-01T01:00:58;98065.44;;;-8.69;100.00
32747;BME280;19118;50.860;13.662;2023-03-01T01:05:58;98064.72;;;-8.74;100.00
32747;BME280;19118;50.860;13.662;2023-03-01T01:10:59;98067.66;;;-8.85;100.00
32747;BME280;19118;50.860;13.662;2023-03-01T01:16:02;98060.81;;;-8.84;100.00
32747;BME280;19118;50.860;13.662;2023-03-01T01:21:09;98058.59;;;-8.93;100.00
32747;BME280;19118;50.860;13.662;2023-03-01T01:26:24;98050.41;;;-9.04;100.00
32747;BME280;19118;50.860;13.662;2023-03-01T01:31:27;98046.38;;;-9.12;100.00
32747;BME280;19118;50.860;13.662;2023-03-01T01:36:28;98040.75;;;-9.23;100.00
32747;BME280;19118;50.860;13.662;2023-03-01T01:41:29;98027.28;;;-9.28;100.00
32747;BME280;19118;50.860;13.662;2023-03-01T01:46:32;98014.84;;;-9.14;100.00
32747;BME280;19118;50.860;13.662;2023-03-01T01:51:38;98024.88;;;-9.07;100.00
32747;BME280;19118;50.860;13.662;2023-03-01T01:56:42;98028.84;;;-9.24;100.00
32747;BME280;19118;50.860;13.662;2023-03-01T02:01:44;98023.38;;;-9.13;100.00
32747;BME280;19118;50.860;13.662;2023-03-01T02:06:49;98019.69;;;-9.04;100.00
32747;BME280;19118;50.860;13.662;2023-03-01T02:11:52;98019.56;;;-9.01;100.00
32747;BME280;19118;50.860;13.662;2023-03-01T02:16:53;98022.69;;;-9.18;100.00
32747;BME280;19118;50.860;13.662;2023-03-01T02:22:33;98010.16;;;-9.26;100.00
32747;BME280;19118;50.860;13.662;2023-03-01T02:27:35;98007.59;;;-9.26;100.00
32747;BME280;19118;50.860;13.662;2023-03-01T02:32:40;98010.16;;;-9.26;100.00
32747;BME280;19118;50.860;13.662;2023-03-01T02:37:42;97998.41;;;-9.33;100.00
32747;BME280;19118;50.860;13.662;2023-03-01T02:42:51;97997.53;;;-9.32;100.00
32747;BME280;19118;50.860;13.662;2023-03-01T02:47:56;98009.38;;;-9.28;100.00
32747;BME280;19118;50.860;13.662;2023-03-01T02:53:16;98002.75;;;-9.35;100.00
32747;BME280;19118;50.860;13.662;2023-03-01T02:58:21;97993.59;;;-9.42;100.00
32747;BME280;19118;50.860;13.662;2023-03-01T03:03:22;97984.31;;;-9.45;100.00
32747;BME280;19118;50.860;13.662;2023-03-01T03:08:22;97968.28;;;-9.51;100.00
32747;BME280;19118;50.860;13.662;2023-03-01T03:13:24;97970.97;;;-9.54;100.00
32747;BME280;19118;50.860;13.662;2023-03-01T03:18:29;97971.25;;;-9.62;100.00
32747;BME280;19118;50.860;13.662;2023-03-01T03:23:29;97968.97;;;-9.71;100.00
32747;BME280;19118;50.860;13.662;2023-03-01T03:28:31;97966.94;;;-9.61;100.00
32747;BME280;19118;50.860;13.662;2023-03-01T03:33:32;97967.56;;;-9.55;100.00
32747;BME280;19118;50.860;13.662;2023-03-01T03:38:32;97962.81;;;-9.65;100.00
32747;BME280;19118;50.860;13.662;2023-03-01T03:43:35;97956.91;;;-9.68;100.00
32747;BME280;19118;50.860;13.662;2023-03-01T03:48:38;97949.34;;;-9.71;100.00
32747;BME280;19118;50.860;13.662;2023-03-01T03:53:40;97956.31;;;-9.76;100.00
32747;BME280;19118;50.860;13.662;2023-03-01T03:58:40;97964.97;;;-9.80;100.00
32747;BME280;19118;50.860;13.662;2023-03-01T04:03:41;97970.88;;;-9.78;100.00
32747;BME280;19118;50.860;13.662;2023-03-01T04:08:41;97967.53;;;-9.80;100.00
32747;BME280;19118;50.860;13.662;2023-03-01T04:13:42;97966.81;;;-9.83;100.00
32747;BME280;19118;50.860;13.662;2023-03-01T04:18:42;97956.00;;;-9.66;100.00
32747;BME280;19118;50.860;13.662;2023-03-01T04:23:42;97953.66;;;-9.73;100.00
32747;BME280;19118;50.860;13.662;2023-03-01T04:28:43;97953.97;;;-9.82;100.00
32747;BME280;19118;50.860;13.662;2023-03-01T04:33:55;97953.97;;;-9.82;100.00
32747;BME280;19118;50.860;13.662;2023-03-01T04:38:56;97947.56;;;-9.95;100.00
32747;BME280;19118;50.860;13.662;2023-03-01T04:43:56;97954.41;;;-9.97;100.00
32747;BME280;19118;50.860;13.662;2023-03-01T04:48:57;97958.19;;;-10.07;100.00
32747;BME280;19118;50.860;13.662;2023-03-01T04:53:58;97951.28;;;-10.05;100.00
32747;BME280;19118;50.860;13.662;2023-03-01T04:58:58;97963.19;;;-10.04;100.00
32747;BME280;19118;50.860;13.662;2023-03-01T05:04:00;97963.97;;;-10.02;100.00
32747;BME280;19118;50.860;13.662;2023-03-01T05:09:03;97954.28;;;-10.20;100.00
32747;BME280;19118;50.860;13.662;2023-03-01T05:14:05;97951.00;;;-10.22;100.00
32747;BME280;19118;50.860;13.662;2023-03-01T05:19:05;97942.53;;;-10.24;100.00
32747;BME280;19118;50.860;13.662;2023-03-01T05:24:11;97951.03;;;-10.24;100.00
32747;BME280;19118;50.860;13.662;2023-03-01T05:29:11;97943.41;;;-10.25;100.00
32747;BME280;19118;50.860;13.662;2023-03-01T05:34:12;97931.53;;;-10.26;100.00
32747;BME280;19118;50.860;13.662;2023-03-01T05:39:12;97936.53;;;-10.23;100.00
32747;BME280;19118;50.860;13.662;2023-03-01T05:44:13;97945.19;;;-10.27;100.00
32747;BME280;19118;50.860;13.662;2023-03-01T05:49:14;97946.56;;;-10.17;100.00
32747;BME280;19118;50.860;13.662;2023-03-01T05:54:14;97946.88;;;-10.26;100.00
32747;BME280;19118;50.860;13.662;2023-03-01T05:59:15;97938.22;;;-10.22;100.00
32747;BME280;19118;50.860;13.662;2023-03-01T06:04:16;97942.16;;;-10.14;100.00
32747;BME280;19118;50.860;13.662;2023-03-01T06:09:16;97943.91;;;-10.14;100.00
32747;BME280;19118;50.860;13.662;2023-03-01T06:14:17;97943.91;;;-10.14;100.00
32747;BME280;19118;50.860;13.662;2023-03-01T06:19:17;97941.63;;;-9.95;100.00
32747;BME280;19118;50.860;13.662;2023-03-01T06:24:18;97941.34;;;-9.88;100.00
32747;BME280;19118;50.860;13.662;2023-03-01T06:29:18;97942.25;;;-9.62;100.00
32747;BME280;19118;50.860;13.662;2023-03-01T06:34:18;97942.81;;;-9.54;100.00
32747;BME280;19118;50.860;13.662;2023-03-01T06:39:19;97947.31;;;-9.36;100.00
32747;BME280;19118;50.860;13.662;2023-03-01T06:44:20;97944.75;;;-9.11;100.00
32747;BME280;19118;50.860;13.662;2023-03-01T06:49:20;97948.16;;;-8.87;100.00
32747;BME280;19118;50.860;13.662;2023-03-01T06:54:21;97952.34;;;-8.61;100.00
32747;BME280;19118;50.860;13.662;2023-03-01T06:59:22;97953.28;;;-8.40;100.00
32747;BME280;19118;50.860;13.662;2023-03-01T07:04:22;97955.13;;;-8.22;100.00
32747;BME280;19118;50.860;13.662;2023-03-01T07:09:24;97958.47;;;-7.98;100.00
32747;BME280;19118;50.860;13.662;2023-03-01T07:14:24;97947.94;;;-7.70;100.00
32747;BME280;19118;50.860;13.662;2023-03-01T07:19:26;97941.56;;;-7.40;100.00
32747;BME280;19118;50.860;13.662;2023-03-01T07:24:26;97942.00;;;-7.10;100.00
32747;BME280;19118;50.860;13.662;2023-03-01T07:29:27;97938.25;;;-6.82;100.00
32747;BME280;19118;50.860;13.662;2023-03-01T07:34:29;97925.00;;;-6.54;100.00
32747;BME280;19118;50.860;13.662;2023-03-01T07:39:29;97929.22;;;-6.16;100.00
32747;BME280;19118;50.860;13.662;2023-03-01T07:44:29;97923.50;;;-5.86;100.00
32747;BME280;19118;50.860;13.662;2023-03-01T07:49:30;97925.50;;;-5.57;100.00
32747;BME280;19118;50.860;13.662;2023-03-01T07:54:30;97921.66;;;-5.31;100.00
32747;BME280;19118;50.860;13.662;2023-03-01T07:59:30;97915.75;;;-5.00;100.00
32747;BME280;19118;50.860;13.662;2023-03-01T08:04:32;97918.56;;;-4.71;100.00
32747;BME280;19118;50.860;13.662;2023-03-01T08:09:36;97905.03;;;-4.59;100.00
32747;BME280;19118;50.860;13.662;2023-03-01T08:14:37;97894.78;;;-4.45;100.00
32747;BME280;19118;50.860;13.662;2023-03-01T08:19:38;97882.97;;;-4.17;100.00
32747;BME280;19118;50.860;13.662;2023-03-01T08:24:38;97886.41;;;-3.87;100.00
32747;BME280;19118;50.860;13.662;2023-03-01T08:29:38;97884.88;;;-3.59;100.00
32747;BME280;19118;50.860;13.662;2023-03-01T08:34:39;97875.47;;;-3.46;100.00
32747;BME280;19118;50.860;13.662;2023-03-01T08:39:39;97863.41;;;-3.31;100.00
32747;BME280;19118;50.860;13.662;2023-03-01T08:44:39;97864.63;;;-3.08;100.00
32747;BME280;19118;50.860;13.662;2023-03-01T08:49:40;97876.66;;;-2.93;100.00
32747;BME280;19118;50.860;13.662;2023-03-01T08:54:40;97877.00;;;-2.85;100.00
32747;BME280;19118;50.860;13.662;2023-03-01T08:59:40;97881.25;;;-2.84;100.00
32747;BME280;19118;50.860;13.662;2023-03-01T09:04:42;97880.06;;;-2.64;100.00
32747;BME280;19118;50.860;13.662;2023-03-01T09:09:42;97865.31;;;-2.35;100.00
32747;BME280;19118;50.860;13.662;2023-03-01T09:14:42;97857.75;;;-2.11;100.00
32747;BME280;19118;50.860;13.662;2023-03-01T09:19:46;97857.41;;;-1.92;100.00
32747;BME280;19118;50.860;13.662;2023-03-01T09:24:46;97854.44;;;-1.73;100.00
32747;BME280;19118;50.860;13.662;2023-03-01T09:29:46;97854.81;;;-1.53;100.00
32747;BME280;19118;50.860;13.662;2023-03-01T09:34:46;97856.59;;;-1.40;100.00
32747;BME280;19118;50.860;13.662;2023-03-01T09:40:08;97855.66;;;-1.27;100.00
32747;BME280;19118;50.860;13.662;2023-03-01T09:45:28;97860.75;;;-1.25;100.00
32747;BME280;19118;50.860;13.662;2023-03-01T09:50:35;97859.19;;;-1.02;100.00
32747;BME280;19118;50.860;13.662;2023-03-01T09:56:00;97857.72;;;-0.81;100.00
32747;BME280;19118;50.860;13.662;2023-03-01T10:01:31;97851.91;;;-0.72;100.00
32747;BME280;19118;50.860;13.662;2023-03-01T10:06:32;97851.19;;;-0.37;100.00
32747;BME280;19118;50.860;13.662;2023-03-01T10:11:38;97864.72;;;-0.32;100.00
32747;BME280;19118;50.860;13.662;2023-03-01T10:16:46;97865.97;;;-0.38;100.00
32747;BME280;19118;50.860;13.662;2023-03-01T10:21:49;97858.84;;;-0.23;100.00
32747;BME280;19118;50.860;13.662;2023-03-01T10:26:56;97866.09;;;0.09;100.00
32747;BME280;19118;50.860;13.662;2023-03-01T10:31:57;97861.53;;;0.12;100.00
32747;BME280;19118;50.860;13.662;2023-03-01T10:37:08;97857.88;;;0.15;100.00
32747;BME280;19118;50.860;13.662;2023-03-01T10:42:30;97847.19;;;0.31;100.00
32747;BME280;19118;50.860;13.662;2023-03-01T10:47:31;97846.66;;;0.14;100.00
32747;BME280;19118;50.860;13.662;2023-03-01T10:52:37;97844.41;;;0.21;100.00
32747;BME280;19118;50.860;13.662;2023-03-01T10:57:39;97835.94;;;0.30;100.00
32747;BME280;19118;50.860;13.662;2023-03-01T11:02:41;97831.97;;;0.37;100.00
32747;BME280;19118;50.860;13.662;2023-03-01T11:07:49;97832.50;;;0.65;100.00
32747;BME280;19118;50.860;13.662;2023-03-01T11:12:52;97838.13;;;0.47;100.00
32747;BME280;19118;50.860;13.662;2023-03-01T11:17:53;97830.03;;;0.74;100.00
32747;BME280;19118;50.860;13.662;2023-03-01T11:23:09;97830.31;;;0.94;100.00
32747;BME280;19118;50.860;13.662;2023-03-01T11:28:14;97825.56;;;0.87;100.00
32747;BME280;19118;50.860;13.662;2023-03-01T11:38:38;97829.25;;;1.19;100.00
32747;BME280;19118;50.860;13.662;2023-03-01T11:43:49;97837.31;;;1.27;100.00
32747;BME280;19118;50.860;13.662;2023-03-01T11:49:19;97835.88;;;1.11;100.00
32747;BME280;19118;50.860;13.662;2023-03-01T11:59:43;97835.00;;;1.67;100.00
32747;BME280;19118;50.860;13.662;2023-03-01T12:10:25;97833.34;;;1.66;99.29
32747;BME280;19118;50.860;13.662;2023-03-01T12:21:14;97816.97;;;1.75;99.15
32747;BME280;19118;50.860;13.662;2023-03-01T12:26:36;97806.31;;;1.78;97.78
32747;BME280;19118;50.860;13.662;2023-03-01T12:37:51;97794.66;;;1.93;93.64
32747;BME280;19118;50.860;13.662;2023-03-01T12:48:22;97781.56;;;2.04;90.27
32747;BME280;19118;50.860;13.662;2023-03-01T12:53:26;97783.59;;;2.01;87.38
32747;BME280;19118;50.860;13.662;2023-03-01T12:58:42;97779.44;;;2.30;87.35
32747;BME280;19118;50.860;13.662;2023-03-01T13:09:25;97776.94;;;2.29;85.16
32747;BME280;19118;50.860;13.662;2023-03-01T13:19:33;97766.53;;;2.59;84.06
32747;BME280;19118;50.860;13.662;2023-03-01T13:24:39;97780.00;;;2.34;85.46
32747;BME280;19118;50.860;13.662;2023-03-01T13:34:48;97774.84;;;2.44;84.08
32747;BME280;19118;50.860;13.662;2023-03-01T13:39:49;97774.41;;;2.39;80.48
32747;BME280;19118;50.860;13.662;2023-03-01T13:44:50;97775.03;;;2.31;81.99
32747;BME280;19118;50.860;13.662;2023-03-01T13:50:00;97767.78;;;2.34;84.09
32747;BME280;19118;50.860;13.662;2023-03-01T13:55:05;97767.63;;;2.57;83.27
32747;BME280;19118;50.860;13.662;2023-03-01T14:00:25;97755.88;;;2.62;80.75
32747;BME280;19118;50.860;13.662;2023-03-01T14:05:25;97764.81;;;2.70;80.98
32747;BME280;19118;50.860;13.662;2023-03-01T14:10:32;97756.22;;;2.79;85.79
32747;BME280;19118;50.860;13.662;2023-03-01T14:16:24;97755.28;;;2.59;85.77
32747;BME280;19118;50.860;13.662;2023-03-01T14:20:56;97749.13;;;2.39;86.32
32747;BME280;19118;50.860;13.662;2023-03-01T14:25:57;97743.72;;;2.31;86.80
32747;BME280;19118;50.860;13.662;2023-03-01T14:30:59;97743.38;;;2.24;85.66
32747;BME280;19118;50.860;13.662;2023-03-01T14:36:01;97743.66;;;2.42;86.47
32747;BME280;19118;50.860;13.662;2023-03-01T14:41:18;97729.66;;;2.43;88.75
32747;BME280;19118;50.860;13.662;2023-03-01T14:46:21;97718.59;;;2.30;90.51
32747;BME280;19118;50.860;13.662;2023-03-01T14:51:24;97720.88;;;2.23;90.31
32747;BME280;19118;50.860;13.662;2023-03-01T14:56:24;97716.31;;;2.16;90.06
32747;BME280;19118;50.860;13.662;2023-03-01T15:01:25;97720.69;;;2.15;91.33
32747;BME280;19118;50.860;13.662;2023-03-01T15:06:25;97719.16;;;2.13;88.43
32747;BME280;19118;50.860;13.662;2023-03-01T15:11:30;97720.09;;;2.12;84.03
32747;BME280;19118;50.860;13.662;2023-03-01T15:16:33;97717.59;;;1.89;85.98
32747;BME280;19118;50.860;13.662;2023-03-01T15:21:37;97713.84;;;1.82;88.34
32747;BME280;19118;50.860;13.662;2023-03-01T15:26:43;97710.53;;;1.80;88.63
32747;BME280;19118;50.860;13.662;2023-03-01T15:32:00;97715.50;;;1.51;91.38
32747;BME280;19118;50.860;13.662;2023-03-01T15:37:02;97707.19;;;1.25;96.17
32747;BME280;19118;50.860;13.662;2023-03-01T15:42:10;97707.66;;;1.08;96.68
32747;BME280;19118;50.860;13.662;2023-03-01T15:47:25;97712.19;;;0.95;95.32
32747;BME280;19118;50.860;13.662;2023-03-01T15:52:35;97702.03;;;0.80;96.54
32747;BME280;19118;50.860;13.662;2023-03-01T15:57:39;97689.84;;;0.58;98.92
32747;BME280;19118;50.860;13.662;2023-03-01T16:02:40;97698.69;;;0.45;99.84
32747;BME280;19118;50.860;13.662;2023-03-01T16:07:41;97696.81;;;0.36;100.00
32747;BME280;19118;50.860;13.662;2023-03-01T16:12:42;97702.53;;;0.06;100.00
32747;BME280;19118;50.860;13.662;2023-03-01T16:17:42;97694.25;;;-0.35;100.00
32747;BME280;19118;50.860;13.662;2023-03-01T16:22:43;97695.84;;;-0.56;100.00
32747;BME280;19118;50.860;13.662;2023-03-01T16:27:48;97691.56;;;-0.81;100.00
32747;BME280;19118;50.860;13.662;2023-03-01T16:32:49;97696.63;;;-1.03;100.00
32747;BME280;19118;50.860;13.662;2023-03-01T16:37:50;97694.69;;;-1.25;100.00
32747;BME280;19118;50.860;13.662;2023-03-01T16:42:53;97697.03;;;-1.59;100.00
32747;BME280;19118;50.860;13.662;2023-03-01T16:47:55;97699.44;;;-1.81;100.00
32747;BME280;19118;50.860;13.662;2023-03-01T16:52:55;97697.53;;;-2.05;100.00
32747;BME280;19118;50.860;13.662;2023-03-01T16:57:55;97704.47;;;-2.18;100.00
32747;BME280;19118;50.860;13.662;2023-03-01T17:02:56;97701.59;;;-2.40;100.00
32747;BME280;19118;50.860;13.662;2023-03-01T17:07:56;97712.13;;;-2.56;100.00
32747;BME280;19118;50.860;13.662;2023-03-01T17:12:57;97708.97;;;-2.74;100.00
32747;BME280;19118;50.860;13.662;2023-03-01T17:17:57;97716.56;;;-2.85;100.00
32747;BME280;19118;50.860;13.662;2023-03-01T17:22:57;97714.09;;;-2.86;100.00
32747;BME280;19118;50.860;13.662;2023-03-01T17:27:58;97712.00;;;-2.94;100.00
32747;BME280;19118;50.860;13.662;2023-03-01T17:32:59;97703.34;;;-3.22;100.00
32747;BME280;19118;50.860;13.662;2023-03-01T17:37:59;97707.97;;;-3.41;100.00
32747;BME280;19118;50.860;13.662;2023-03-01T17:42:59;97710.38;;;-3.52;100.00
32747;BME280;19118;50.860;13.662;2023-03-01T17:48:00;97715.22;;;-3.60;100.00
32747;BME280;19118;50.860;13.662;2023-03-01T17:53:00;97707.91;;;-3.54;100.00
32747;BME280;19118;50.860;13.662;2023-03-01T17:58:00;97702.28;;;-3.60;100.00
32747;BME280;19118;50.860;13.662;2023-03-01T18:03:01;97718.34;;;-3.84;100.00
32747;BME280;19118;50.860;13.662;2023-03-01T18:08:02;97716.47;;;-3.96;100.00
32747;BME280;19118;50.860;13.662;2023-03-01T18:13:03;97725.69;;;-4.06;100.00
32747;BME280;19118;50.860;13.662;2023-03-01T18:18:04;97720.94;;;-4.14;100.00
32747;BME280;19118;50.860;13.662;2023-03-01T18:23:04;97717.00;;;-4.05;100.00
32747;BME280;19118;50.860;13.662;2023-03-01T18:28:05;97702.53;;;-4.07;100.00
32747;BME280;19118;50.860;13.662;2023-03-01T18:33:06;97704.22;;;-4.22;100.00
32747;BME280;19118;50.860;13.662;2023-03-01T18:38:06;97703.09;;;-4.32;100.00
32747;BME280;19118;50.860;13.662;2023-03-01T18:43:06;97698.63;;;-4.45;100.00
32747;BME280;19118;50.860;13.662;2023-03-01T18:48:07;97694.09;;;-4.55;100.00
32747;BME280;19118;50.860;13.662;2023-03-01T18:53:07;97689.00;;;-4.57;100.00
32747;BME280;19118;50.860;13.662;2023-03-01T18:58:09;97698.03;;;-4.64;100.00
32747;BME280;19118;50.860;13.662;2023-03-01T19:03:09;97696.09;;;-4.60;100.00
32747;BME280;19118;50.860;13.662;2023-03-01T19:08:10;97699.28;;;-4.71;100.00
32747;BME280;19118;50.860;13.662;2023-03-01T19:13:10;97707.72;;;-4.83;100.00
32747;BME280;19118;50.860;13.662;2023-03-01T19:18:11;97701.31;;;-4.92;100.00
32747;BME280;19118;50.860;13.662;2023-03-01T19:23:11;97702.47;;;-5.13;100.00
32747;BME280;19118;50.860;13.662;2023-03-01T19:28:11;97707.88;;;-5.18;100.00
32747;BME280;19118;50.860;13.662;2023-03-01T19:33:12;97701.56;;;-5.12;100.00
32747;BME280;19118;50.860;13.662;2023-03-01T19:38:12;97706.22;;;-5.19;100.00
32747;BME280;19118;50.860;13.662;2023-03-01T19:43:13;97701.06;;;-5.19;100.00
32747;BME280;19118;50.860;13.662;2023-03-01T19:48:14;97692.75;;;-5.24;100.00
32747;BME280;19118;50.860;13.662;2023-03-01T19:53:15;97687.09;;;-5.31;100.00
32747;BME280;19118;50.860;13.662;2023-03-01T19:58:15;97678.44;;;-5.14;100.00
32747;BME280;19118;50.860;13.662;2023-03-01T20:03:15;97676.47;;;-5.09;100.00
32747;BME280;19118;50.860;13.662;2023-03-01T20:08:16;97684.94;;;-5.07;100.00
32747;BME280;19118;50.860;13.662;2023-03-01T20:13:16;97692.50;;;-5.19;100.00
32747;BME280;19118;50.860;13.662;2023-03-01T20:18:20;97700.91;;;-5.32;100.00
32747;BME280;19118;50.860;13.662;2023-03-01T20:23:20;97706.41;;;-5.55;100.00
32747;BME280;19118;50.860;13.662;2023-03-01T20:28:20;97692.88;;;-5.59;100.00
32747;BME280;19118;50.860;13.662;2023-03-01T20:33:21;97701.03;;;-5.50;100.00
32747;BME280;19118;50.860;13.662;2023-03-01T20:38:21;97698.38;;;-5.49;100.00
32747;BME280;19118;50.860;13.662;2023-03-01T20:43:21;97683.84;;;-5.50;100.00
32747;BME280;19118;50.860;13.662;2023-03-01T20:48:22;97682.91;;;-5.49;100.00
32747;BME280;19118;50.860;13.662;2023-03-01T20:53:23;97677.59;;;-5.62;100.00
32747;BME280;19118;50.860;13.662;2023-03-01T20:58:23;97679.25;;;-5.61;100.00
32747;BME280;19118;50.860;13.662;2023-03-01T21:03:24;97672.59;;;-5.65;100.00
32747;BME280;19118;50.860;13.662;2023-03-01T21:08:25;97671.56;;;-5.78;100.00
32747;BME280;19118;50.860;13.662;2023-03-01T21:13:26;97676.63;;;-5.92;100.00
32747;BME280;19118;50.860;13.662;2023-03-01T21:18:27;97669.00;;;-5.94;100.00
32747;BME280;19118;50.860;13.662;2023-03-01T21:23:30;97675.06;;;-5.95;100.00
32747;BME280;19118;50.860;13.662;2023-03-01T21:28:32;97674.53;;;-6.01;100.00
32747;BME280;19118;50.860;13.662;2023-03-01T21:33:34;97671.81;;;-5.98;100.00
32747;BME280;19118;50.860;13.662;2023-03-01T21:38:38;97660.25;;;-6.07;100.00
32747;BME280;19118;50.860;13.662;2023-03-01T21:43:39;97657.91;;;-6.11;100.00
32747;BME280;19118;50.860;13.662;2023-03-01T21:48:41;97653.00;;;-6.16;100.00
32747;BME280;19118;50.860;13.662;2023-03-01T21:53:42;97652.91;;;-6.14;100.00
32747;BME280;19118;50.860;13.662;2023-03-01T21:58:43;97656.41;;;-6.16;100.00
32747;BME280;19118;50.860;13.662;2023-03-01T22:03:44;97655.66;;;-6.18;100.00
32747;BME280;19118;50.860;13.662;2023-03-01T22:08:50;97656.22;;;-6.12;100.00
32747;BME280;19118;50.860;13.662;2023-03-01T22:13:52;97640.78;;;-6.12;100.00
32747;BME280;19118;50.860;13.662;2023-03-01T22:18:53;97640.38;;;-6.21;100.00
32747;BME280;19118;50.860;13.662;2023-03-01T22:23:55;97625.00;;;-6.22;100.00
32747;BME280;19118;50.860;13.662;2023-03-01T22:28:58;97618.69;;;-6.17;100.00
32747;BME280;19118;50.860;13.662;2023-03-01T22:33:59;97624.94;;;-6.21;100.00
32747;BME280;19118;50.860;13.662;2023-03-01T22:38:59;97630.81;;;-6.19;100.00
32747;BME280;19118;50.860;13.662;2023-03-01T22:44:01;97628.72;;;-6.28;100.00
32747;BME280;19118;50.860;13.662;2023-03-01T22:49:01;97632.19;;;-6.29;100.00
32747;BME280;19118;50.860;13.662;2023-03-01T22:54:02;97623.66;;;-6.29;100.00
32747;BME280;19118;50.860;13.662;2023-03-01T22:59:07;97627.34;;;-6.35;100.00
32747;BME280;19118;50.860;13.662;2023-03-01T23:04:08;97625.56;;;-6.33;100.00
32747;BME280;19118;50.860;13.662;2023-03-01T23:09:09;97626.59;;;-6.37;100.00
32747;BME280;19118;50.860;13.662;2023-03-01T23:14:13;97630.09;;;-6.38;100.00
32747;BME280;19118;50.860;13.662;2023-03-01T23:19:13;97625.78;;;-6.37;100.00
32747;BME280;19118;50.860;13.662;2023-03-01T23:24:16;97617.31;;;-6.39;100.00
32747;BME280;19118;50.860;13.662;2023-03-01T23:29:18;97621.91;;;-6.46;100.00
32747;BME280;19118;50.860;13.662;2023-03-01T23:34:18;97629.97;;;-6.52;100.00
32747;BME280;19118;50.860;13.662;2023-03-01T23:39:19;97614.97;;;-6.61;100.00
32747;BME280;19118;50.860;13.662;2023-03-01T23:44:20;97613.41;;;-6.64;100.00
32747;BME280;19118;50.860;13.662;2023-03-01T23:49:21;97612.56;;;-6.64;100.00
32747;BME280;19118;50.860;13.662;2023-03-01T23:54:24;97612.56;;;-6.64;100.00
32747;BME280;19118;50.860;13.662;2023-03-01T23:59:24;97614.41;;;-6.66;100.00
